Latest Coastal Weather Observations for Marion Reef

IDQ60701

Issued at 4:51 pm EST Tuesday 3 May 2016 (issued every 10 minutes, with the page automatically refreshed every 10 minutes)

About coastal observations | Map of coastal stations | Coastal observations for QLD | Marine services | Other Formats
Station Details ID: 200704 Name: MARION REEF Lat: -19.10 Lon: 152.39 Height: 2.0 m
Data from the previous 72 hours. | See also: Recent months for locations in Queensland
Date/Time
EST
Temp

°C
Wind Pressure Rain
since 9am
mm
Weather Cloud Vis
km
Sea
Height
m
Swell
Dir
 
Speed
knots
Gust
knots
hPa Trend Height
m
Period
s
Dir
03/04:30pm 27.3 E 7 9 1011.6 - - - - - - - - -
03/04:00pm 27.3 E 8 9 1011.3 - - - - - - - - -
03/03:30pm 27.4 E 7 8 1011.2 - - - - - - - - -
03/03:00pm 27.6 E 8 9 1011.1 - - - - - - - - -
03/02:30pm 27.4 E 9 11 1011.2 - - - - - - - - -
03/02:00pm 27.5 E 9 11 1011.2 - - - - - - - - -
03/01:30pm 27.6 E 10 11 1011.5 - - - - - - - - -
03/01:00pm 27.5 E 10 11 1011.8 - - - - - - - - -
03/12:30pm 27.4 E 10 12 1012.2 - - - - - - - - -
03/12:00pm 27.5 E 9 11 1012.6 - - - - - - - - -
03/11:30am 27.5 E 10 11 1013.2 - - - - - - - - -
03/11:00am 27.7 E 11 12 1013.3 - - - - - - - - -
03/10:30am 27.6 E 11 12 1013.8 - - - - - - - - -
03/10:00am 27.8 E 10 13 1014.1 - - - - - - - - -
03/09:30am 27.1 ESE 11 13 1014.5 - - - - - - - - -
03/09:00am 27.1 ESE 12 14 1014.4 - - - - - - - - -
03/08:30am 27.5 ESE 10 12 1014.4 - - - - - - - - -
03/08:00am 27.1 ESE 10 11 1014.2 - - - - - - - - -
03/07:30am 27.5 E 10 11 1013.9 - - - - - - - - -
03/07:00am 27.1 E 9 10 1013.7 - - - - - - - - -
03/06:30am 27.0 ESE 9 10 1013.5 - - - - - - - - -
03/06:00am 27.0 ESE 10 11 1013.1 - - - - - - - - -
03/05:30am 27.0 ESE 8 10 1013.1 - - - - - - - - -
03/05:00am 26.9 ESE 8 9 1012.8 - - - - - - - - -
03/04:30am 27.0 ESE 8 10 1012.6 - - - - - - - - -
03/04:00am 26.9 E 9 11 1012.2 - - - - - - - - -
03/03:30am 26.8 ESE 9 11 1012.5 - - - - - - - - -
03/03:00am 26.7 ESE 10 11 1012.6 - - - - - - - - -
03/02:30am 26.8 E 10 11 1012.5 - - - - - - - - -
03/02:00am 26.9 ESE 9 10 1012.6 - - - - - - - - -
03/01:30am 27.1 ESE 10 11 1013.1 - - - - - - - - -
03/01:00am 27.1 SE 8 9 1013.3 - - - - - - - - -
03/12:30am 27.0 SE 7 8 1013.9 - - - - - - - - -
03/12:00am 27.0 SE 8 10 1014.1 - - - - - - - - -
 
Date/Time
EST
Temp

°C
Wind Pressure Rain
since 9am
mm
Weather Cloud Vis
km
Sea
Height
m
Swell
Dir
 
Speed
knots
Gust
knots
hPa Trend Height
m
Period
s
Dir
02/11:30pm 27.1 ESE 8 9 1014.3 - - - - - - - - -
02/11:00pm 27.0 E 8 10 1014.1 - - - - - - - - -
02/10:30pm 27.3 E 10 11 1014.3 - - - - - - - - -
02/10:00pm 27.2 E 10 11 1014.4 - - - - - - - - -
02/09:30pm 27.1 E 10 11 1014.7 - - - - - - - - -
02/09:00pm 27.2 E 10 12 1014.5 - - - - - - - - -
02/08:30pm 27.3 E 10 12 1014.5 - - - - - - - - -
02/08:00pm 27.3 ESE 11 13 1014.4 - - - - - - - - -
02/07:30pm 27.2 ESE 10 11 1014.4 - - - - - - - - -
02/07:00pm 27.1 ESE 10 11 1014.1 - - - - - - - - -
02/06:30pm 27.2 ESE 10 11 1013.8 - - - - - - - - -
02/06:00pm 27.1 ESE 10 12 1013.4 - - - - - - - - -
02/05:30pm 27.2 ESE 11 13 1013.1 - - - - - - - - -
02/05:00pm 27.1 ESE 12 14 1012.8 - - - - - - - - -
02/04:30pm 27.2 ESE 12 13 1012.6 - - - - - - - - -
02/04:00pm 27.3 ESE 11 13 1012.2 - - - - - - - - -
02/03:30pm 27.2 ESE 11 13 1012.0 - - - - - - - - -
02/03:00pm 27.4 E 12 13 1011.8 - - - - - - - - -
02/02:30pm 27.1 E 13 15 1012.0 - - - - - - - - -
02/02:00pm 27.2 E 12 14 1012.2 - - - - - - - - -
02/01:30pm 27.2 E 13 15 1012.5 - - - - - - - - -
02/01:00pm 27.5 E 12 14 1012.8 - - - - - - - - -
02/12:30pm 27.2 E 11 13 1013.4 - - - - - - - - -
02/12:00pm 27.5 E 12 14 1013.6 - - - - - - - - -
02/11:30am 27.5 E 12 14 1014.1 - - - - - - - - -
02/11:00am 27.1 E 14 16 1014.3 - - - - - - - - -
02/10:30am 27.2 E 14 17 1014.7 - - - - - - - - -
02/10:00am 27.3 E 13 15 1014.8 - - - - - - - - -
02/09:30am 26.9 ENE 9 10 1015.2 - - - - - - - - -
02/09:00am 26.6 E 12 14 1015.0 - - - - - - - - -
02/08:30am 26.2 E 12 14 1015.1 - - - - - - - - -
02/08:00am 25.8 E 13 14 1014.9 - - - - - - - - -
02/07:30am 25.7 E 14 16 1015.0 - - - - - - - - -
02/07:00am 25.7 E 11 12 1014.6 - - - - - - - - -
02/06:30am 24.7 ESE 12 17 1014.7 - - - - - - - - -
02/06:00am 25.7 ENE 12 15 1014.1 - - - - - - - - -
02/05:30am 26.2 E 12 14 1013.7 - - - - - - - - -
02/05:00am 25.7 ENE 12 14 1013.3 - - - - - - - - -
02/04:30am 26.0 ENE 14 16 1013.1 - - - - - - - - -
02/04:00am 26.5 ENE 14 17 1012.9 - - - - - - - - -
02/03:30am 26.8 ESE 13 15 1013.1 - - - - - - - - -
02/03:00am 26.9 E 9 11 1013.0 - - - - - - - - -
02/02:30am 26.6 E 9 11 1013.1 - - - - - - - - -
02/02:00am 26.4 E 10 12 1013.3 - - - - - - - - -
02/01:30am 26.2 ENE 10 11 1013.7 - - - - - - - - -
02/01:00am 26.6 E 10 12 1014.1 - - - - - - - - -
02/12:30am 26.8 E 11 13 1014.5 - - - - - - - - -
02/12:00am 27.0 SE 12 14 1014.8 - - - - - - - - -
 
Date/Time
EST
Temp

°C
Wind Pressure Rain
since 9am
mm
Weather Cloud Vis
km
Sea
Height
m
Swell
Dir
 
Speed
knots
Gust
knots
hPa Trend Height
m
Period
s
Dir
01/11:30pm 27.2 SE 12 13 1015.1 - - - - - - - - -
01/11:00pm 27.2 SE 12 14 1015.3 - - - - - - - - -
01/10:30pm 27.4 ESE 12 14 1015.6 - - - - - - - - -
01/10:00pm 27.3 SE 12 14 1015.7 - - - - - - - - -
01/09:30pm 27.0 ESE 13 14 1015.7 - - - - - - - - -
01/09:00pm 27.2 ESE 13 14 1015.7 - - - - - - - - -
01/08:30pm 27.2 ESE 11 13 1015.9 - - - - - - - - -
01/08:00pm 27.3 SE 11 12 1015.8 - - - - - - - - -
01/07:30pm 27.4 ESE 10 11 1015.9 - - - - - - - - -
01/07:00pm 27.3 ESE 11 13 1015.3 - - - - - - - - -
01/06:30pm 27.3 ESE 11 13 1014.9 - - - - - - - - -
01/06:00pm 27.5 E 11 13 1014.4 - - - - - - - - -
01/05:30pm 27.3 E 12 15 1014.2 - - - - - - - - -
01/05:00pm 27.6 ESE 10 12 1014.0 - - - - - - - - -
01/04:30pm 27.5 E 12 14 1013.8 - - - - - - - - -
01/04:00pm 27.7 E 12 14 1013.5 - - - - - - - - -
01/03:30pm 27.3 ESE 12 14 1013.6 - - - - - - - - -
01/03:00pm 27.5 E 12 13 1013.4 - - - - - - - - -
01/02:30pm 27.7 E 11 13 1013.2 - - - - - - - - -
01/02:00pm 27.7 E 11 13 1013.2 - - - - - - - - -
01/01:30pm 27.8 E 13 16 1013.6 - - - - - - - - -
01/01:00pm 27.8 E 13 14 1013.8 - - - - - - - - -
01/12:30pm 27.6 E 13 16 1014.3 - - - - - - - - -
01/12:00pm 27.6 E 14 16 1014.3 - - - - - - - - -
01/11:30am 27.7 E 13 15 1015.1 - - - - - - - - -
01/11:00am 27.8 E 13 16 1015.2 - - - - - - - - -
01/10:30am 27.8 E 13 16 1015.8 - - - - - - - - -
01/10:00am 27.8 E 13 16 1016.0 - - - - - - - - -
01/09:30am 27.4 E 14 16 1016.2 - - - - - - - - -
01/09:00am 27.4 E 15 16 1016.3 - - - - - - - - -
01/08:30am 27.6 E 13 16 1016.3 - - - - - - - - -
01/08:00am 27.5 E 13 16 1016.2 - - - - - - - - -
01/07:30am 27.5 E 13 16 1016.1 - - - - - - - - -
01/07:00am 27.3 E 14 16 1015.8 - - - - - - - - -
01/06:30am 27.3 E 15 17 1015.7 - - - - - - - - -
01/06:00am 27.2 E 14 17 1015.6 - - - - - - - - -
01/05:30am 27.2 E 14 17 1015.4 - - - - - - - - -
01/05:00am 27.3 E 15 17 1015.2 - - - - - - - - -
01/04:30am 27.0 E 15 17 1015.1 - - - - - - - - -
01/04:00am 27.3 E 15 17 1014.7 - - - - - - - - -
01/03:30am 27.2 ESE 16 18 1014.7 - - - - - - - - -
01/03:00am 27.2 ESE 16 18 1014.6 - - - - - - - - -
01/02:30am 27.1 ESE 15 17 1014.8 - - - - - - - - -
01/02:00am 27.3 ESE 16 18 1014.8 - - - - - - - - -
01/01:30am 27.2 ESE 16 18 1014.9 - - - - - - - - -
01/01:00am 27.3 ESE 16 18 1015.0 - - - - - - - - -
01/12:30am 27.4 E 15 18 1015.1 - - - - - - - - -
01/12:00am 27.3 E 17 21 1014.9 - - - - - - - - -
 
Date/Time
EST
Temp

°C
Wind Pressure Rain
since 9am
mm
Weather Cloud Vis
km
Sea
Height
m
Swell
Dir
 
Speed
knots
Gust
knots
hPa Trend Height
m
Period
s
Dir
30/11:30pm 27.5 E 18 20 1015.1 - - - - - - - - -
30/11:00pm 27.5 E 17 20 1015.2 - - - - - - - - -
30/10:30pm 27.3 ESE 18 20 1015.4 - - - - - - - - -
30/10:00pm 27.3 E 18 21 1015.5 - - - - - - - - -
30/09:30pm 27.4 ESE 18 20 1015.7 - - - - - - - - -
30/09:00pm 27.5 ESE 17 20 1015.7 - - - - - - - - -
30/08:30pm 27.5 ESE 18 19 1015.7 - - - - - - - - -
30/08:00pm 27.4 ESE 17 21 1015.5 - - - - - - - - -
30/07:30pm 27.4 ESE 17 19 1015.3 - - - - - - - - -
30/07:00pm 27.5 ESE 17 19 1014.9 - - - - - - - - -
30/06:30pm 27.4 ESE 15 18 1014.6 - - - - - - - - -
30/06:00pm 27.4 ESE 16 19 1014.2 - - - - - - - - -
30/05:30pm 27.4 ESE 16 18 1014.2 - - - - - - - - -
30/05:00pm 27.5 ESE 15 19 1014.0 - - - - - - - - -

Other Formats:

Comma delimited format used in spreadsheet applications
http://www.bom.gov.au/fwo/IDQ60701/IDQ60701.94298.axf

JavaScript Object Notation format (JSON) in row-major order
http://www.bom.gov.au/fwo/IDQ60701/IDQ60701.94298.json